Time;durP1;ratioP1;P1;durP2;ratioP2;P2;SDS_P1;SDS_P2;PMS_P1;PMS_P2;Temp;Humidity;BMP_temperature;BMP_pressure;BME280_temperature;BME280_humidity;BME280_pressure;Samples;Min_cycle;Max_cycle;Signal;HPM_P1;HPM_P2
2021/08/12 00:01:42;;;;;;;;;;;;;;;13.36;57.07;101399.16;1706761;84;20103;-76
2021/08/12 00:04:08;;;;;;;;;;;;;;;13.33;57.17;101403.09;1715852;82;20096;-77
2021/08/12 00:06:34;;;;;;;;;;;;;;;13.30;57.27;101400.11;1705150;83;20201;-77
2021/08/12 00:09:00;;;;;;;;;;;;;;;13.30;57.32;101409.20;1719277;82;20126;-77
2021/08/12 00:11:26;;;;;;;;;;;;;;;13.29;57.31;101408.78;1732043;83;20101;-77
2021/08/12 00:13:52;;;;;;;;;;;;;;;13.25;57.33;101419.65;1731876;83;20104;-77
2021/08/12 00:16:18;;;;;;;;;;;;;;;13.22;57.43;101415.80;1731107;82;20092;-77
2021/08/12 00:18:44;;;;;;;;;;;;;;;13.21;57.52;101422.31;1719963;82;20117;-77
2021/08/12 00:21:11;;;;;;;;;;;;;;;13.18;57.59;101419.75;1719367;83;20094;-77
2021/08/12 00:23:39;;;;;;;;;;;;;;;13.14;57.53;101422.80;1706315;82;20126;-77
2021/08/12 00:26:05;;;;;;;;;;;;;;;13.11;57.61;101423.28;1704568;84;20232;-77
2021/08/12 00:28:31;;;;;;;;;;;;;;;13.09;57.60;101421.14;1703945;84;20094;-77
2021/08/12 00:30:59;;;;;;;;;;;;;;;13.06;57.70;101423.78;1709874;82;20126;-77
2021/08/12 00:33:26;;;;;;;;;;;;;;;13.03;57.81;101415.59;1706835;84;20106;-77
2021/08/12 00:35:53;;;;;;;;;;;;;;;13.03;57.85;101421.22;1707168;84;20114;-77
2021/08/12 00:38:21;;;;;;;;;;;;;;;13.02;57.85;101421.66;1654439;84;20119;-77
2021/08/12 00:40:47;;;;;;;;;;;;;;;13.01;57.91;101433.37;1712846;82;20177;-77
2021/08/12 00:43:13;;;;;;;;;;;;;;;12.98;57.98;101433.00;1709660;82;20123;-77
2021/08/12 00:45:39;;;;;;;;;;;;;;;12.97;57.97;101435.17;1674610;84;20106;-77
2021/08/12 00:48:05;;;;;;;;;;;;;;;12.96;58.04;101437.79;1704836;84;20789;-77
2021/08/12 00:50:31;;;;;;;;;;;;;;;12.93;58.15;101439.55;1715942;82;20137;-77
2021/08/12 00:52:57;;;;;;;;;;;;;;;12.93;58.19;101439.98;1677268;84;20109;-77
2021/08/12 00:55:23;;;;;;;;;;;;;;;12.91;58.19;101434.81;1656446;84;20156;-77
2021/08/12 00:57:50;;;;;;;;;;;;;;;12.90;58.21;101437.42;1707107;82;20104;-76
2021/08/12 01:00:16;;;;;;;;;;;;;;;12.89;58.25;101431.81;1733649;82;20112;-76
2021/08/12 01:02:42;;;;;;;;;;;;;;;12.87;58.31;101437.46;1704574;84;20095;-76
2021/08/12 01:05:10;;;;;;;;;;;;;;;12.85;58.36;101433.59;1696065;82;20124;-76
2021/08/12 01:07:48;;;;;;;;;;;;;;;12.84;58.39;101434.91;1693083;84;20090;-76
2021/08/12 01:10:19;;;;;;;;;;;;;;;12.83;58.41;101429.30;1735142;82;20112;-76
2021/08/12 01:13:01;;;;;;;;;;;;;;;12.83;58.45;101430.59;1704821;82;20131;-76
2021/08/12 01:15:41;;;;;;;;;;;;;;;12.82;58.50;101434.06;1710765;82;20237;-76
2021/08/12 01:18:14;;;;;;;;;;;;;;;12.79;58.52;101432.36;1709783;82;20126;-76
2021/08/12 01:21:01;;;;;;;;;;;;;;;12.75;58.56;101431.13;1709523;82;20122;-76
2021/08/12 01:23:29;;;;;;;;;;;;;;;12.73;58.68;101430.28;1715593;82;20098;-76
2021/08/12 01:25:56;;;;;;;;;;;;;;;12.72;58.74;101428.12;1683422;84;20127;-76
2021/08/12 01:28:25;;;;;;;;;;;;;;;12.71;58.78;101430.73;1709841;84;20094;-76
2021/08/12 01:31:04;;;;;;;;;;;;;;;12.70;58.85;101427.72;1713883;82;20133;-76
2021/08/12 01:33:57;;;;;;;;;;;;;;;12.70;58.86;101430.31;1681166;84;20102;-76
2021/08/12 01:36:24;;;;;;;;;;;;;;;12.69;58.84;101431.19;1713156;82;20106;-76
2021/08/12 01:38:51;;;;;;;;;;;;;;;12.67;58.80;101430.34;1709979;83;20106;-76
2021/08/12 01:41:17;;;;;;;;;;;;;;;12.65;58.90;101432.09;1709957;84;20130;-76
2021/08/12 01:43:44;;;;;;;;;;;;;;;12.62;58.98;101433.00;1709442;84;20114;-76
2021/08/12 01:46:12;;;;;;;;;;;;;;;12.60;59.01;101430.86;1709008;82;20189;-76
2021/08/12 01:48:38;;;;;;;;;;;;;;;12.55;59.05;101432.20;1705228;84;20218;-77
2021/08/12 01:51:05;;;;;;;;;;;;;;;12.53;59.12;101439.14;1710607;82;20192;-77
2021/08/12 01:53:33;;;;;;;;;;;;;;;12.53;59.16;101440.44;1709611;84;20122;-77
2021/08/12 01:55:59;;;;;;;;;;;;;;;12.52;59.19;101441.75;1708794;82;20143;-77
2021/08/12 01:58:26;;;;;;;;;;;;;;;12.50;59.19;101437.88;1661749;85;20169;-76
2021/08/12 02:00:56;;;;;;;;;;;;;;;12.48;59.22;101442.66;1681509;85;20112;-76
2021/08/12 02:03:24;;;;;;;;;;;;;;;12.46;59.21;101441.84;1696519;82;20110;-76
2021/08/12 02:05:50;;;;;;;;;;;;;;;12.45;59.23;101447.91;1723231;82;20118;-76
2021/08/12 02:08:21;;;;;;;;;;;;;;;12.42;59.30;101444.91;1715230;82;20094;-76
2021/08/12 02:10:48;;;;;;;;;;;;;;;12.41;59.35;101444.92;1690940;84;20106;-76
2021/08/12 02:13:14;;;;;;;;;;;;;;;12.39;59.36;101442.34;1681701;82;20092;-76
2021/08/12 02:15:41;;;;;;;;;;;;;;;12.38;59.38;101447.55;1713889;82;20258;-76
2021/08/12 02:18:07;;;;;;;;;;;;;;;12.35;59.38;101448.88;1712734;82;20212;-76
2021/08/12 02:20:35;;;;;;;;;;;;;;;12.33;59.46;101447.59;1724551;83;20204;-77
2021/08/12 02:23:10;;;;;;;;;;;;;;;12.31;59.48;101451.94;1730066;83;20167;-77
2021/08/12 02:25:49;;;;;;;;;;;;;;;12.31;59.51;101456.27;1704152;82;20226;-77
2021/08/12 02:28:16;;;;;;;;;;;;;;;12.28;59.54;101451.11;1703580;84;20181;-77
2021/08/12 02:30:43;;;;;;;;;;;;;;;12.26;59.57;101448.53;1704878;84;20203;-77
2021/08/12 02:33:13;;;;;;;;;;;;;;;12.24;59.63;101443.36;1673724;84;20193;-77
2021/08/12 02:35:39;;;;;;;;;;;;;;;12.24;59.69;101442.50;1705044;82;20182;-77
2021/08/12 02:38:08;;;;;;;;;;;;;;;12.23;59.77;101443.37;1701901;82;20772;-77
2021/08/12 02:40:36;;;;;;;;;;;;;;;12.22;59.78;101437.33;1713455;82;20202;-77
2021/08/12 02:43:03;;;;;;;;;;;;;;;12.20;59.84;101439.08;1704201;84;20198;-77
2021/08/12 02:45:29;;;;;;;;;;;;;;;12.20;59.84;101439.51;1712232;82;20225;-77
2021/08/12 02:47:56;;;;;;;;;;;;;;;12.19;59.88;101435.20;1712618;82;20166;-77
2021/08/12 02:50:22;;;;;;;;;;;;;;;12.18;59.89;101433.48;1703649;82;20210;-77
2021/08/12 02:52:48;;;;;;;;;;;;;;;12.16;59.93;101432.63;1707048;84;20086;-77
2021/08/12 02:55:15;;;;;;;;;;;;;;;12.15;59.93;101434.80;1707065;84;20422;-77
2021/08/12 02:57:41;;;;;;;;;;;;;;;12.13;59.95;101431.37;1717864;82;20124;-76
2021/08/12 03:00:08;;;;;;;;;;;;;;;12.10;59.97;101428.80;1674579;84;20111;-76
2021/08/12 03:02:35;;;;;;;;;;;;;;;12.07;59.98;101428.83;1704454;84;20106;-76
2021/08/12 03:05:20;;;;;;;;;;;;;;;12.05;60.01;101436.62;1710882;82;20128;-76
2021/08/12 03:07:47;;;;;;;;;;;;;;;12.02;60.01;101436.64;1709361;83;20087;-76
2021/08/12 03:10:18;;;;;;;;;;;;;;;11.99;60.05;101433.22;1698570;84;20099;-76
2021/08/12 03:12:46;;;;;;;;;;;;;;;11.96;60.06;101432.81;1702730;83;20124;-77
2021/08/12 03:15:12;;;;;;;;;;;;;;;11.92;60.15;101434.59;1709578;83;20111;-77
2021/08/12 03:17:39;;;;;;;;;;;;;;;11.91;60.17;101431.58;1698482;84;20107;-77
2021/08/12 03:20:08;;;;;;;;;;;;;;;11.91;60.22;101430.72;1700151;83;20099;-77
2021/08/12 03:22:34;;;;;;;;;;;;;;;11.89;60.23;101431.17;1703869;83;20087;-77
2021/08/12 03:25:00;;;;;;;;;;;;;;;11.88;60.22;101434.20;1628104;83;5001278;-77
2021/08/12 03:27:28;;;;;;;;;;;;;;;11.86;60.24;101429.46;1696807;83;20131;-77
2021/08/12 03:29:53;;;;;;;;;;;;;;;11.84;60.30;101436.39;1696060;83;20161;-77
2021/08/12 03:32:20;;;;;;;;;;;;;;;11.83;60.36;101435.97;1712105;81;20223;-77
2021/08/12 03:34:48;;;;;;;;;;;;;;;11.80;60.46;101435.98;1673232;85;20149;-77
2021/08/12 03:37:14;;;;;;;;;;;;;;;11.80;60.50;101436.42;1704483;82;20244;-77
2021/08/12 03:39:41;;;;;;;;;;;;;;;11.81;60.54;101436.85;1701737;82;20242;-77
2021/08/12 03:42:09;;;;;;;;;;;;;;;11.81;60.51;101438.15;1706568;84;20127;-77
2021/08/12 03:44:35;;;;;;;;;;;;;;;11.81;60.52;101440.73;1706691;84;20102;-77
2021/08/12 03:47:01;;;;;;;;;;;;;;;11.80;60.61;101445.06;1716129;82;20122;-77
2021/08/12 03:49:27;;;;;;;;;;;;;;;11.78;60.63;101437.73;1724828;83;20202;-77
2021/08/12 03:51:53;;;;;;;;;;;;;;;11.78;60.75;101448.53;1724929;82;20194;-77
2021/08/12 03:54:19;;;;;;;;;;;;;;;11.79;60.79;101443.77;1720095;82;20389;-77
2021/08/12 03:56:45;;;;;;;;;;;;;;;11.80;60.84;101451.54;1729971;83;20188;-77
2021/08/12 03:59:13;;;;;;;;;;;;;;;11.83;60.85;101450.22;1729739;83;20183;-77
2021/08/12 04:01:40;;;;;;;;;;;;;;;11.84;60.87;101451.94;1694393;82;20134;-77
2021/08/12 04:04:06;;;;;;;;;;;;;;;11.86;60.86;101456.67;1702741;83;20186;-77
2021/08/12 04:06:32;;;;;;;;;;;;;;;11.88;60.87;101456.66;1702773;84;20178;-77
2021/08/12 04:08:58;;;;;;;;;;;;;;;11.90;60.90;101455.78;1705317;82;20951;-77
2021/08/12 04:11:24;;;;;;;;;;;;;;;11.92;60.99;101458.36;1651759;85;20798;-77
2021/08/12 04:13:52;;;;;;;;;;;;;;;11.93;61.01;101453.59;1699453;82;20140;-77
2021/08/12 04:16:18;;;;;;;;;;;;;;;11.96;61.01;101460.49;1703136;83;20871;-77
2021/08/12 04:18:44;;;;;;;;;;;;;;;11.99;61.07;101466.91;1648735;83;20182;-77
2021/08/12 04:21:12;;;;;;;;;;;;;;;12.02;61.19;101468.19;1597295;90;20134;-77
2021/08/12 04:23:38;;;;;;;;;;;;;;;12.06;61.19;101466.85;1598985;88;20167;-77
2021/08/12 04:26:04;;;;;;;;;;;;;;;12.09;61.15;101478.93;1598901;87;20546;-77
2021/08/12 04:28:30;;;;;;;;;;;;;;;12.10;61.16;101479.35;1597281;90;20101;-77
2021/08/12 04:30:56;;;;;;;;;;;;;;;12.11;61.25;101481.94;1597374;88;20113;-77
2021/08/12 04:33:22;;;;;;;;;;;;;;;12.15;61.36;101481.03;1598351;88;20115;-77
2021/08/12 04:35:48;;;;;;;;;;;;;;;12.19;61.46;101487.05;1595806;89;20132;-77
2021/08/12 04:38:14;;;;;;;;;;;;;;;12.23;61.43;101486.16;1594629;89;20763;-77
2021/08/12 04:40:40;;;;;;;;;;;;;;;12.26;61.54;101488.72;1594671;89;20254;-77
2021/08/12 04:43:07;;;;;;;;;;;;;;;12.30;61.58;101488.26;1595252;88;20143;-77
2021/08/12 04:45:34;;;;;;;;;;;;;;;12.35;61.62;101487.34;1596562;88;20114;-77
2021/08/12 04:48:06;;;;;;;;;;;;;;;12.41;61.65;101484.70;1595983;88;20140;-77
2021/08/12 04:50:37;;;;;;;;;;;;;;;12.46;61.75;101492.00;1586726;88;20136;-77
2021/08/12 04:53:04;;;;;;;;;;;;;;;12.53;61.81;101489.73;1594229;88;20103;-77
2021/08/12 04:55:30;;;;;;;;;;;;;;;12.62;61.93;101494.41;1597364;90;20526;-77
2021/08/12 04:57:56;;;;;;;;;;;;;;;12.70;61.95;101493.89;1604283;88;20129;-76
2021/08/12 05:00:23;;;;;;;;;;;;;;;12.79;62.05;101499.84;1609416;88;20114;-76
2021/08/12 05:02:49;;;;;;;;;;;;;;;12.88;62.07;101495.84;1597305;90;20146;-78
2021/08/12 05:05:15;;;;;;;;;;;;;;;12.98;62.13;101500.94;1596142;88;20488;-79
2021/08/12 05:07:41;;;;;;;;;;;;;;;13.06;62.15;101496.05;1593141;88;20192;-79
2021/08/12 05:10:08;;;;;;;;;;;;;;;13.15;62.30;101498.53;1594410;88;20215;-79
2021/08/12 05:12:34;;;;;;;;;;;;;;;13.20;62.38;101497.20;1587069;88;20216;-79
2021/08/12 05:15:01;;;;;;;;;;;;;;;13.28;62.59;101495.38;1594033;88;20210;-79
2021/08/12 05:17:27;;;;;;;;;;;;;;;13.49;62.88;101495.53;1584959;88;20717;-79
2021/08/12 05:19:55;;;;;;;;;;;;;;;13.87;63.30;101490.60;1593510;88;20196;-79
2021/08/12 05:22:22;;;;;;;;;;;;;;;14.41;63.16;101494.89;1592736;88;20230;-79
2021/08/12 05:24:48;;;;;;;;;;;;;;;15.04;63.49;101494.13;1593271;88;20609;-79
2021/08/12 05:27:14;;;;;;;;;;;;;;;15.78;62.93;101487.70;1565987;88;20203;-79
2021/08/12 05:29:40;;;;;;;;;;;;;;;16.30;62.30;101495.97;1574318;88;20189;-79
2021/08/12 05:32:09;;;;;;;;;;;;;;;16.92;62.92;101504.75;1575001;88;20172;-79
2021/08/12 05:34:35;;;;;;;;;;;;;;;17.64;62.40;101499.54;1594941;88;20189;-79
2021/08/12 05:37:01;;;;;;;;;;;;;;;18.28;62.04;101499.20;1590867;88;20167;-80
2021/08/12 05:39:30;;;;;;;;;;;;;;;18.83;61.73;101505.55;1595373;88;20172;-79
2021/08/12 05:41:56;;;;;;;;;;;;;;;19.35;61.53;101506.67;1567040;90;20141;-79
2021/08/12 05:44:22;;;;;;;;;;;;;;;19.82;61.37;101509.61;1592920;88;20229;-79
2021/08/12 05:46:49;;;;;;;;;;;;;;;20.29;60.90;101509.41;1594028;88;20480;-79
2021/08/12 05:49:15;;;;;;;;;;;;;;;20.83;60.82;101515.37;1593237;88;20148;-79
2021/08/12 05:51:41;;;;;;;;;;;;;;;21.43;60.86;101516.61;1600482;88;20123;-79
2021/08/12 05:54:07;;;;;;;;;;;;;;;22.01;60.39;101519.95;1592091;88;20242;-79
2021/08/12 05:56:35;;;;;;;;;;;;;;;22.41;60.19;101518.78;1594791;88;20190;-79
2021/08/12 05:59:11;;;;;;;;;;;;;;;22.38;59.85;101520.72;1596296;88;20542;-79
2021/08/12 06:01:37;;;;;;;;;;;;;;;22.54;60.36;101516.84;1599751;88;20189;-79
2021/08/12 06:04:03;;;;;;;;;;;;;;;22.70;59.88;101516.44;1593242;88;20727;-76
2021/08/12 06:06:30;;;;;;;;;;;;;;;23.13;60.35;101520.30;1594990;88;20615;-76
2021/08/12 06:08:56;;;;;;;;;;;;;;;23.44;59.77;101519.45;1595398;88;20503;-76
2021/08/12 06:11:23;;;;;;;;;;;;;;;23.95;59.83;101521.42;1596783;88;20150;-76
2021/08/12 06:13:49;;;;;;;;;;;;;;;24.22;59.33;101526.44;1595096;88;20275;-76
2021/08/12 06:16:15;;;;;;;;;;;;;;;24.28;59.03;101530.55;1593749;88;20925;-76
2021/08/12 06:18:40;;;;;;;;;;;;;;;24.45;58.98;101526.41;1600177;87;20267;-76
2021/08/12 06:21:06;;;;;;;;;;;;;;;24.86;58.99;101523.06;1600852;88;20218;-76
2021/08/12 06:23:32;;;;;;;;;;;;;;;25.08;58.51;101526.94;1605022;88;20322;-79
2021/08/12 06:25:59;;;;;;;;;;;;;;;25.46;58.35;101526.81;1606216;88;20144;-78
2021/08/12 06:28:25;;;;;;;;;;;;;;;25.82;58.37;101530.21;1601640;88;20183;-78
2021/08/12 06:30:51;;;;;;;;;;;;;;;25.97;57.79;101531.86;1603586;88;21046;-78
2021/08/12 06:33:17;;;;;;;;;;;;;;;26.31;57.89;101521.19;1602948;88;20531;-78
2021/08/12 06:35:43;;;;;;;;;;;;;;;26.43;57.42;101520.84;1602652;88;20250;-78
2021/08/12 06:38:09;;;;;;;;;;;;;;;26.61;57.25;101527.51;1561730;88;20874;-78
2021/08/12 06:40:35;;;;;;;;;;;;;;;26.88;57.32;101528.25;1599101;88;20561;-78
2021/08/12 06:43:01;;;;;;;;;;;;;;;27.11;56.95;101529.30;1609810;88;20298;-78
2021/08/12 06:45:27;;;;;;;;;;;;;;;27.30;56.58;101532.34;1600475;88;21037;-78
2021/08/12 06:48:06;;;;;;;;;;;;;;;27.56;56.49;101527.77;1604356;88;20467;-78
2021/08/12 06:50:32;;;;;;;;;;;;;;;27.89;56.43;101532.95;1602886;88;20141;-78
2021/08/12 06:52:58;;;;;;;;;;;;;;;28.12;55.95;101527.21;1606687;88;20131;-78
2021/08/12 06:55:24;;;;;;;;;;;;;;;28.24;55.75;101534.30;1602958;88;20799;-78
2021/08/12 06:57:50;;;;;;;;;;;;;;;28.45;55.36;101531.34;1607001;88;20487;-78
2021/08/12 07:00:20;;;;;;;;;;;;;;;28.67;55.42;101528.69;1604090;88;20117;-78
2021/08/12 07:02:46;;;;;;;;;;;;;;;28.82;55.06;101532.01;1601831;88;20164;-78
2021/08/12 07:05:12;;;;;;;;;;;;;;;28.97;55.71;101529.47;1578699;88;20129;-81
2021/08/12 07:07:38;;;;;;;;;;;;;;;29.07;54.62;101532.74;1614054;88;20942;-81
2021/08/12 07:10:05;;;;;;;;;;;;;;;29.25;54.62;101530.77;1601400;87;20231;-81
2021/08/12 07:12:34;;;;;;;;;;;;;;;29.47;54.37;101536.58;1581999;88;20451;-81
2021/08/12 07:15:00;;;;;;;;;;;;;;;29.72;53.99;101526.56;1608148;87;20267;-81
2021/08/12 07:17:28;;;;;;;;;;;;;;;29.72;53.54;101528.73;1576917;88;20689;-81
2021/08/12 07:19:54;;;;;;;;;;;;;;;29.76;53.56;101534.66;1595982;88;20439;-81
2021/08/12 07:22:20;;;;;;;;;;;;;;;29.80;53.74;101530.28;1602654;88;20506;-81
2021/08/12 07:24:47;;;;;;;;;;;;;;;29.65;53.47;101534.21;1596762;88;20455;-81
2021/08/12 07:27:14;;;;;;;;;;;;;;;29.50;52.80;101536.34;1582474;88;20417;-81
2021/08/12 07:29:40;;;;;;;;;;;;;;;29.60;52.67;101540.44;1600033;88;20095;-82
2021/08/12 07:32:06;;;;;;;;;;;;;;;29.81;52.35;101537.31;1600700;88;20938;-82
2021/08/12 07:34:32;;;;;;;;;;;;;;;29.98;52.48;101535.92;1600764;88;20189;-82
2021/08/12 07:36:58;;;;;;;;;;;;;;;30.10;51.67;101537.60;1604937;88;20243;-82
2021/08/12 07:39:28;;;;;;;;;;;;;;;30.32;51.55;101539.77;1604510;88;20133;-79
2021/08/12 07:41:54;;;;;;;;;;;;;;;30.42;51.37;101540.69;1607555;88;20284;-78
2021/08/12 07:44:20;;;;;;;;;;;;;;;30.33;51.66;101532.13;1602700;88;20476;-77
2021/08/12 07:47:01;;;;;;;;;;;;;;;30.14;50.73;101547.53;1601709;88;20445;-77
2021/08/12 07:49:28;;;;;;;;;;;;;;;30.22;50.54;101544.55;1605382;88;20161;-77
2021/08/12 07:51:57;;;;;;;;;;;;;;;30.25;50.15;101542.95;1597449;88;20566;-77
2021/08/12 07:54:23;;;;;;;;;;;;;;;30.29;50.24;101548.87;1575433;88;20208;-77
2021/08/12 07:56:49;;;;;;;;;;;;;;;30.24;50.22;101545.75;1596922;88;20141;-77
2021/08/12 07:59:16;;;;;;;;;;;;;;;30.15;49.52;101551.89;1610669;88;20626;-76
2021/08/12 08:01:42;;;;;;;;;;;;;;;30.21;49.32;101552.19;1503775;87;10000910;-77
2021/08/12 08:04:08;;;;;;;;;;;;;;;30.22;49.27;101554.38;1623643;87;20171;-79
2021/08/12 08:06:34;;;;;;;;;;;;;;;30.39;49.20;101553.80;1623624;87;20562;-79
2021/08/12 08:09:01;;;;;;;;;;;;;;;30.44;48.71;101558.75;1618756;86;20135;-79
2021/08/12 08:11:28;;;;;;;;;;;;;;;30.40;48.79;101557.31;1618869;87;20219;-79
2021/08/12 08:13:54;;;;;;;;;;;;;;;30.33;48.24;101551.65;1616404;87;20205;-79
2021/08/12 08:16:22;;;;;;;;;;;;;;;30.37;48.50;101553.08;1588972;88;20620;-79
2021/08/12 08:18:48;;;;;;;;;;;;;;;30.27;48.04;101552.16;1601580;87;20219;-79
2021/08/12 08:21:15;;;;;;;;;;;;;;;30.03;47.81;101552.42;1609645;87;20224;-79
2021/08/12 08:23:45;;;;;;;;;;;;;;;29.83;47.53;101562.03;1623851;87;20200;-79
2021/08/12 08:26:12;;;;;;;;;;;;;;;29.69;47.42;101564.98;1622059;88;20168;-79
2021/08/12 08:28:38;;;;;;;;;;;;;;;29.61;47.20;101566.97;1628164;87;20489;-79
2021/08/12 08:31:03;;;;;;;;;;;;;;;29.49;46.83;101559.95;1614346;87;20355;-79
2021/08/12 08:33:35;;;;;;;;;;;;;;;29.60;47.04;101565.27;1597950;88;20206;-79
2021/08/12 08:36:06;;;;;;;;;;;;;;;29.74;46.95;101568.60;1568619;90;20209;-79
2021/08/12 08:38:32;;;;;;;;;;;;;;;29.69;46.55;101560.98;1573362;89;20203;-79
2021/08/12 08:40:59;;;;;;;;;;;;;;;29.55;46.53;101567.95;1569104;90;20234;-79
2021/08/12 08:43:30;;;;;;;;;;;;;;;29.44;46.57;101563.97;1556762;91;20208;-79
2021/08/12 08:45:57;;;;;;;;;;;;;;;29.30;46.35;101559.70;1569456;90;20152;-79
2021/08/12 08:48:24;;;;;;;;;;;;;;;29.00;45.73;101560.34;1607706;89;20588;-79
2021/08/12 08:50:52;;;;;;;;;;;;;;;28.87;45.59;101555.13;1584771;89;20205;-79
2021/08/12 08:53:18;;;;;;;;;;;;;;;28.97;45.61;101556.59;1603289;89;20735;-79
2021/08/12 08:55:45;;;;;;;;;;;;;;;29.45;45.39;101561.17;1569825;89;20683;-79
2021/08/12 08:58:12;;;;;;;;;;;;;;;29.89;45.16;101556.69;1572362;89;20122;-78
2021/08/12 09:00:38;;;;;;;;;;;;;;;30.42;45.20;101553.54;1581106;89;20150;-78
2021/08/12 09:03:04;;;;;;;;;;;;;;;30.90;45.00;101557.84;1572421;89;20164;-78
2021/08/12 09:05:30;;;;;;;;;;;;;;;31.09;45.41;101557.09;1557174;89;20565;-78
2021/08/12 09:07:59;;;;;;;;;;;;;;;31.25;44.95;101551.23;1578284;89;20151;-78
2021/08/12 09:10:25;;;;;;;;;;;;;;;31.45;44.77;101552.14;1603769;89;20121;-78
2021/08/12 09:12:51;;;;;;;;;;;;;;;31.53;44.74;101549.14;1580776;89;20183;-78
2021/08/12 09:15:20;;;;;;;;;;;;;;;31.44;44.44;101543.77;1602761;88;20100;-78
2021/08/12 09:17:48;;;;;;;;;;;;;;;31.25;44.36;101544.55;1598586;86;20134;-78
2021/08/12 09:20:24;;;;;;;;;;;;;;;30.70;44.33;101548.03;1661466;86;20138;-78
2021/08/12 09:23:02;;;;;;;;;;;;;;;30.03;44.00;101551.58;1638905;86;20176;-78
2021/08/12 09:25:40;;;;;;;;;;;;;;;29.47;44.11;101553.91;1631309;86;20477;-78
2021/08/12 09:28:29;;;;;;;;;;;;;;;29.09;43.59;101550.30;1641701;87;20172;-78
2021/08/12 09:31:03;;;;;;;;;;;;;;;28.81;43.21;101548.92;1640408;86;20160;-78
2021/08/12 09:33:32;;;;;;;;;;;;;;;28.57;43.16;101549.03;1646684;86;20167;-78
2021/08/12 09:35:59;;;;;;;;;;;;;;;28.27;42.57;101540.23;1580510;89;20254;-78
2021/08/12 09:38:26;;;;;;;;;;;;;;;27.99;42.62;101544.11;1573436;89;20220;-80
2021/08/12 09:40:54;;;;;;;;;;;;;;;27.63;42.40;101537.03;1579369;89;20201;-79
2021/08/12 09:43:20;;;;;;;;;;;;;;;27.45;42.39;101534.86;1559157;89;20225;-80
2021/08/12 09:45:47;;;;;;;;;;;;;;;27.33;42.29;101541.42;1577007;89;20197;-80
2021/08/12 09:48:18;;;;;;;;;;;;;;;27.28;42.15;101530.75;1581224;89;20236;-80
2021/08/12 09:50:48;;;;;;;;;;;;;;;27.17;42.02;101538.64;1578659;89;20173;-80
2021/08/12 09:53:19;;;;;;;;;;;;;;;27.06;41.69;101535.41;1584385;89;20239;-80
2021/08/12 09:55:46;;;;;;;;;;;;;;;26.90;41.73;101526.34;1595137;89;20253;-80
2021/08/12 09:58:15;;;;;;;;;;;;;;;26.85;41.83;101530.27;1593865;89;20191;-79
2021/08/12 10:00:48;;;;;;;;;;;;;;;26.82;41.64;101529.16;1589653;89;20249;-75
2021/08/12 10:03:31;;;;;;;;;;;;;;;26.82;41.72;101528.69;1586705;89;20249;-75
2021/08/12 10:06:00;;;;;;;;;;;;;;;26.80;41.57;101523.95;1591943;89;20237;-78
2021/08/12 10:08:32;;;;;;;;;;;;;;;26.82;41.53;101526.50;1591066;89;20478;-78
2021/08/12 10:11:16;;;;;;;;;;;;;;;26.78;41.36;101516.58;1588371;89;20298;-78
2021/08/12 10:13:59;;;;;;;;;;;;;;;26.69;41.28;101522.52;1627371;86;20259;-79
2021/08/12 10:16:27;;;;;;;;;;;;;;;26.66;41.30;101524.91;1650148;86;20206;-79
2021/08/12 10:18:55;;;;;;;;;;;;;;;26.63;41.13;101524.27;1656239;85;20423;-78
2021/08/12 10:21:21;;;;;;;;;;;;;;;26.55;41.11;101524.80;1640921;85;20216;-79
2021/08/12 10:23:59;;;;;;;;;;;;;;;26.61;41.23;101525.70;1665633;85;20180;-80
2021/08/12 10:26:29;;;;;;;;;;;;;;;26.65;41.10;101523.21;1661877;85;20169;-80
2021/08/12 10:29:11;;;;;;;;;;;;;;;26.68;41.03;101525.66;1661003;85;20160;-80
2021/08/12 10:31:45;;;;;;;;;;;;;;;26.66;40.96;101526.72;1631767;85;20235;-80
2021/08/12 10:34:18;;;;;;;;;;;;;;;26.58;41.08;101526.39;1646419;85;20168;-81
2021/08/12 10:36:48;;;;;;;;;;;;;;;26.55;41.10;101532.75;1645003;85;20225;-81
2021/08/12 10:39:15;;;;;;;;;;;;;;;26.60;40.87;101529.31;1648967;85;20252;-81
2021/08/12 10:41:41;;;;;;;;;;;;;;;26.56;40.85;101515.88;1644096;85;20258;-82
2021/08/12 10:44:09;;;;;;;;;;;;;;;26.63;40.76;101514.98;1644790;85;20255;-82
2021/08/12 10:46:40;;;;;;;;;;;;;;;26.60;40.68;101514.72;1646239;85;20235;-82
2021/08/12 10:49:33;;;;;;;;;;;;;;;26.59;40.78;101518.80;1646485;85;20230;-80
2021/08/12 10:52:08;;;;;;;;;;;;;;;26.61;40.97;101511.11;1648266;85;20214;-80
2021/08/12 10:54:37;;;;;;;;;;;;;;;26.73;40.93;101520.51;1647928;85;20168;-80
2021/08/12 10:57:17;;;;;;;;;;;;;;;26.80;40.81;101516.48;1648153;85;20123;-81
2021/08/12 10:59:43;;;;;;;;;;;;;;;26.81;40.59;101508.41;1623713;85;20145;-81
2021/08/12 11:02:31;;;;;;;;;;;;;;;26.90;40.65;101503.78;1649526;85;20128;-81
2021/08/12 11:04:59;;;;;;;;;;;;;;;26.92;40.47;101499.69;1662867;84;20188;-81
2021/08/12 11:07:42;;;;;;;;;;;;;;;26.92;40.68;101503.20;1648911;85;20164;-81
2021/08/12 11:10:11;;;;;;;;;;;;;;;26.97;40.51;101506.41;1645701;85;20172;-81
2021/08/12 11:12:57;;;;;;;;;;;;;;;27.02;40.39;101506.08;1647047;85;20272;-81
2021/08/12 11:15:42;;;;;;;;;;;;;;;27.07;40.40;101504.39;1645702;85;20186;-81
2021/08/12 11:18:14;;;;;;;;;;;;;;;27.13;40.50;101506.62;1646639;85;20164;-81
2021/08/12 11:20:45;;;;;;;;;;;;;;;27.13;40.30;101502.16;1641069;85;20129;-81
2021/08/12 11:23:25;;;;;;;;;;;;;;;27.22;40.52;101501.98;1639968;85;20223;-81
2021/08/12 11:25:59;;;;;;;;;;;;;;;27.21;40.24;101501.13;1630005;85;20235;-81
2021/08/12 11:28:42;;;;;;;;;;;;;;;27.21;40.09;101498.95;1623088;85;20349;-80
2021/08/12 11:31:23;;;;;;;;;;;;;;;27.07;39.97;101497.77;1634458;85;21034;-84
2021/08/12 11:34:01;;;;;;;;;;;;;;;26.98;40.19;101500.62;1631962;85;20401;-84
2021/08/12 11:36:29;;;;;;;;;;;;;;;26.95;40.05;101500.80;1602659;87;20632;-83
2021/08/12 11:39:08;;;;;;;;;;;;;;;26.95;39.90;101494.17;1598812;87;20237;-85
2021/08/12 11:41:38;;;;;;;;;;;;;;;26.89;40.20;101489.29;1602124;87;20220;-84
2021/08/12 11:44:15;;;;;;;;;;;;;;;26.73;39.97;101486.02;1603170;87;20377;-84
2021/08/12 11:46:42;;;;;;;;;;;;;;;26.74;40.15;101490.36;1600046;88;20199;-84
2021/08/12 11:49:13;;;;;;;;;;;;;;;26.84;40.06;101480.33;1597298;88;20199;-84
2021/08/12 11:51:39;;;;;;;;;;;;;;;26.88;39.95;101477.83;1605994;87;20182;-84
2021/08/12 11:54:05;;;;;;;;;;;;;;;26.92;40.07;101476.66;1573920;88;20385;-84
2021/08/12 11:56:33;;;;;;;;;;;;;;;26.84;39.75;101477.67;1600478;88;20391;-84
2021/08/12 11:59:01;;;;;;;;;;;;;;;26.82;39.79;101476.93;1607801;87;20107;-84
2021/08/12 12:01:33;;;;;;;;;;;;;;;26.81;39.77;101481.86;1605067;88;20293;-84
2021/08/12 12:04:07;;;;;;;;;;;;;;;26.78;39.82;101475.45;1601681;88;20142;-84
2021/08/12 12:06:41;;;;;;;;;;;;;;;26.79;39.78;101471.84;1603030;88;20189;-83
2021/08/12 12:09:26;;;;;;;;;;;;;;;26.86;39.80;101467.80;1610223;87;20218;-81
2021/08/12 12:11:55;;;;;;;;;;;;;;;26.89;39.57;101470.23;1582937;87;20370;-81
2021/08/12 12:14:24;;;;;;;;;;;;;;;26.90;39.69;101469.75;1603527;87;20199;-81
2021/08/12 12:17:10;;;;;;;;;;;;;;;26.95;39.68;101471.61;1600912;88;20221;-81
2021/08/12 12:19:59;;;;;;;;;;;;;;;26.89;39.79;101478.67;1610895;85;20226;-83
2021/08/12 12:22:27;;;;;;;;;;;;;;;26.96;39.73;101478.16;1655180;85;20368;-83
2021/08/12 12:24:56;;;;;;;;;;;;;;;26.99;39.46;101480.60;1639845;85;20214;-83
2021/08/12 12:27:23;;;;;;;;;;;;;;;27.03;39.39;101477.25;1653297;85;20244;-83
2021/08/12 12:29:49;;;;;;;;;;;;;;;27.06;39.43;101476.16;1659200;85;20247;-83
2021/08/12 12:32:19;;;;;;;;;;;;;;;27.13;39.63;101470.30;1581828;85;20223;-83
2021/08/12 12:34:54;;;;;;;;;;;;;;;27.20;39.49;101472.03;1651346;85;20216;-83
2021/08/12 12:37:24;;;;;;;;;;;;;;;27.21;39.37;101468.41;1654209;85;20227;-83
2021/08/12 12:39:51;;;;;;;;;;;;;;;27.17;39.31;101470.92;1663689;85;20242;-83
2021/08/12 12:42:18;;;;;;;;;;;;;;;27.14;39.38;101473.31;1643562;85;20190;-83
2021/08/12 12:45:02;;;;;;;;;;;;;;;27.08;39.39;101469.77;1628963;86;20220;-83